Waynesboro, Pennsylvania
Current Conditions -  °F | °C
As of 4:53 PM on Thursday 18 Dec 2014 (Local Time) from KRYT Reporting Station
Clear Clear  
Wind Chill: 29°   Ceiling: Unl
Heat Index: 33°   Visibility: 10mi
Dew Point: 21°   Wind: 5mph
Humidity: 61%   Direction: NA
Pressure: 30.05"   Gusts: NA
Location:  39.76°N, 77.58°W
Report Text: KRYT 182153Z AUTO VRB04KT 10SM CLR 01/M06 A3005 RMK AO2 SLP190 T00061061 $
Loading
Personal Weather Stations






























Interactive Weather Map New forecast layout! Learn more

10-Day Weather Forecast

Advertisements
Track Severe Weather on mobile